Latest Coastal Weather Observations for Norah Head

IDN60701

Issued at 3:51 am EST Saturday 30 July 2016 (issued every 10 minutes, with the page automatically refreshed every 10 minutes)

About coastal observations | Map of coastal stations | Coastal observations for NSW | Marine services | Other Formats
Station Details ID: 061366 Name: NORAH HEAD AWS Lat: -33.28 Lon: 151.58 Height: 18.8 m
Data from the previous 72 hours. | See also: Recent months at Norah Head
Date/Time
EST
Temp
°C
Wind Pressure Rain since
9am
mm
Weather Cloud Vis
km
Sea
Height
m
Swell
Dir  Spd
kts
Gust
kts
hPa Trend Height
m
Period
s
Dir
30/03:30am 8.9 W 6 8 1021.1 - 0.0 - - - - - - -
30/03:00am 9.0 W 4 6 1020.8 - 0.0 - - - - - - -
30/02:30am 9.0 W 4 6 1021.2 - 0.0 - - - - - - -
30/02:00am 9.1 W 4 6 1021.2 - 0.0 - - - - - - -
30/01:30am 9.1 WNW 2 4 1021.2 - 0.0 - - - - - - -
30/01:00am 9.6 WNW 4 6 1021.2 - 0.0 - - - - - - -
30/12:30am 9.7 W 5 7 1021.1 - 0.0 - - - - - - -
30/12:00am 10.0 W 6 9 1020.9 - 0.0 - - - - - - -
 
Date/Time
EST
Temp
°C
Wind Pressure Rain since
9am
mm
Weather Cloud Vis
km
Sea
Height
m
Swell
Dir  Spd
kts
Gust
kts
hPa Trend Height
m
Period
s
Dir
29/11:30pm 10.3 W 5 9 1021.0 - 0.0 - - - - - - -
29/11:00pm 10.4 W 6 8 1021.0 - 0.0 - - - - - - -
29/10:30pm 10.7 W 5 7 1020.7 - 0.0 - - - - - - -
29/10:00pm 11.4 W 5 8 1020.4 - 0.0 - - - - - - -
29/09:30pm 11.7 W 6 8 1020.3 - 0.0 - - - - - - -
29/09:00pm 12.5 W 7 9 1020.2 - 0.0 - - - - - - -
29/08:30pm 12.2 W 8 10 1020.0 - 0.0 - - - - - - -
29/08:00pm 12.4 WNW 6 9 1019.6 - 0.0 - - - - - - -
29/07:30pm 12.4 WNW 4 7 1019.3 - 0.0 - - - - - - -
29/07:00pm 12.9 WNW 5 7 1018.8 - 0.0 - - - - - - -
29/06:30pm 13.3 NW 4 7 1018.6 - 0.0 - - - - - - -
29/06:00pm 13.7 NNW 4 6 1018.4 - 0.0 - - - - - - -
29/05:30pm 14.2 WNW 3 5 1018.0 - 0.0 - - - - - - -
29/05:00pm 14.7 NNW 2 3 1017.9 - 0.0 - - - - - - -
29/04:30pm 15.4 NNE 1 2 1017.9 - 0.0 - - - - - - -
29/04:00pm 15.4 NNE 2 3 1017.8 - 0.0 - - - - - - -
29/03:30pm 16.1 ENE 4 6 1017.9 - 0.0 - - - - - - -
29/03:00pm 16.3 ENE 4 6 1018.1 - 0.0 - - - - - - -
29/02:30pm 16.3 E 3 5 1018.2 - 0.0 - - - - - - -
29/02:00pm 16.3 E 4 6 1018.5 - 0.0 - - - - - - -
29/01:30pm 18.0 NE 2 3 1018.7 - 0.0 - - - - - - -
29/01:00pm 17.2 WSW 1 5 1019.0 - 0.0 - - - - - - -
29/12:30pm 17.6 NNW 4 6 1019.6 - 0.0 - - - - - - -
29/12:00pm 17.5 NNW 5 9 1020.3 - 0.0 - - - - - - -
29/11:30am 17.1 NNW 6 9 1021.0 - 0.0 - - - - - - -
29/11:00am 16.4 NNW 6 9 1021.5 - 0.0 - - - - - - -
29/10:30am 15.7 NNW 5 8 1022.2 - 0.0 - - - - - - -
29/10:00am 14.5 NNW 3 6 1022.8 - 0.0 - - - - - - -
29/09:30am 12.7 NW 1 4 1022.8 - 0.0 - - - - - - -
29/09:00am 11.2 WNW 1 5 1023.0 - 0.0 - - - - - - -
29/08:30am 10.5 SW 1 3 1022.9 - 0.0 - - - - - - -
29/08:00am 9.1 W 3 7 1022.8 - 0.0 - - - - - - -
29/07:30am 8.3 NW 4 8 1022.9 - 0.0 - - - - - - -
29/07:00am 7.4 NW 5 8 1022.7 - 0.0 - - - - - - -
29/06:30am 7.4 NW 5 8 1022.4 - 0.0 - - - - - - -
29/06:00am 7.6 NW 5 7 1022.2 - 0.0 - - - - - - -
29/05:30am 7.5 WNW 3 6 1022.2 - 0.0 - - - - - - -
29/05:00am 7.9 NW 4 9 1022.1 - 0.0 - - - - - - -
29/04:30am 8.0 NW 5 8 1021.9 - 0.0 - - - - - - -
29/04:00am 7.7 NW 3 6 1021.9 - 0.0 - - - - - - -
29/03:30am 7.9 WNW 5 7 1021.7 - 0.0 - - - - - - -
29/03:00am 8.6 WNW 6 9 1021.8 - 0.0 - - - - - - -
29/02:30am 8.7 WNW 6 10 1022.0 - 0.0 - - - - - - -
29/02:00am 8.7 WNW 5 8 1022.2 - 0.0 - - - - - - -
29/01:30am 8.6 WNW 4 8 1022.2 - 0.0 - - - - - - -
29/01:00am 8.9 WNW 4 8 1022.4 - 0.0 - - - - - - -
29/12:30am 9.4 WNW 5 8 1022.6 - 0.0 - - - - - - -
29/12:00am 10.0 WNW 5 8 1022.6 - 0.0 - - - - - - -
 
Date/Time
EST
Temp
°C
Wind Pressure Rain since
9am
mm
Weather Cloud Vis
km
Sea
Height
m
Swell
Dir  Spd
kts
Gust
kts
hPa Trend Height
m
Period
s
Dir
28/11:30pm 10.4 W 5 6 1022.8 - 0.0 - - - - - - -
28/11:00pm 10.8 WNW 4 6 1022.8 - 0.0 - - - - - - -
28/10:30pm 11.2 W 6 7 1022.5 - 0.0 - - - - - - -
28/10:00pm 12.1 WSW 6 8 1022.5 - 0.0 - - - - - - -
28/09:30pm 12.2 WSW 6 8 1022.4 - 0.0 - - - - - - -
28/09:00pm 12.2 W 5 7 1022.3 - 0.0 - - - - - - -
28/08:30pm 12.5 W 6 8 1022.2 - 0.0 - - - - - - -
28/08:00pm 12.9 WNW 4 6 1021.9 - 0.0 - - - - - - -
28/07:30pm 13.2 NW 4 6 1021.7 - 0.0 - - - - - - -
28/07:00pm 13.7 NW 5 6 1021.5 - 0.0 - - - - - - -
28/06:30pm 14.2 NNW 6 9 1021.4 - 0.0 - - - - - - -
28/06:00pm 14.4 NW 5 7 1021.0 - 0.0 - - - - - - -
28/05:30pm 14.5 NW 4 5 1020.9 - 0.0 - - - - - - -
28/05:00pm 15.5 NW 3 4 1020.9 - 0.0 - - - - - - -
28/04:30pm 16.6 NW 2 3 1020.8 - 0.0 - - - - - - -
28/04:00pm 17.0 NW 4 6 1020.5 - 0.0 - - - - - - -
28/03:30pm 17.5 NW 2 6 1020.7 - 0.0 - - - - - - -
28/03:00pm 17.9 NW 3 7 1020.9 - 0.0 - - - - - - -
28/02:30pm 18.6 NW 6 10 1021.1 - 0.0 - - - - - - -
28/02:00pm 17.9 NNW 9 11 1021.2 - 0.0 - - - - - - -
28/01:30pm 18.6 NNW 4 8 1021.6 - 0.0 - - - - - - -
28/01:00pm 16.9 NE 2 3 1022.2 - 0.0 - - - - - - -
28/12:30pm 17.1 WNW 2 7 1022.6 - 0.0 - - - - - - -
28/12:00pm 16.1 WSW 2 5 1023.1 - 0.0 - - - - - - -
28/11:30am 15.8 W 1 4 1023.6 - 0.0 - - - - - - -
28/11:00am 15.4 W 2 5 1024.2 - 0.0 - - - - - - -
28/10:30am 14.9 WNW 3 6 1024.4 - 0.0 - - - - - - -
28/10:00am 14.3 W 4 8 1024.6 - 0.0 - - - - - - -
28/09:30am 13.7 NW 4 8 1024.5 - 0.0 - - - - - - -
28/09:00am 12.8 WNW 4 9 1024.3 - 0.0 - - - - - - -
28/08:30am 11.6 WNW 4 9 1024.0 - 0.0 - - - - - - -
28/08:00am 10.9 WNW 3 7 1023.7 - 0.0 - - - - - - -
28/07:30am 9.8 WNW 4 6 1023.2 - 0.0 - - - - - - -
28/07:00am 8.7 WNW 2 5 1023.0 - 0.0 - - - - - - -
28/06:30am 8.9 WNW 2 5 1022.7 - 0.0 - - - - - - -
28/06:00am 8.9 NW 3 5 1022.4 - 0.0 - - - - - - -
28/05:30am 8.8 WNW 3 5 1022.0 - 0.0 - - - - - - -
28/05:00am 9.0 WNW 4 6 1021.4 - 0.0 - - - - - - -
28/04:30am 9.3 NW 3 4 1021.1 - 0.0 - - - - - - -
28/04:00am 9.3 WNW 3 7 1020.9 - 0.0 - - - - - - -
28/03:30am 9.3 NW 4 7 1021.0 - 0.0 - - - - - - -
28/03:00am 9.7 NW 3 7 1021.1 - 0.0 - - - - - - -
28/02:30am 9.7 WNW 4 6 1021.3 - 0.0 - - - - - - -
28/02:00am 9.5 WNW 3 5 1021.6 - 0.0 - - - - - - -
28/01:30am 10.1 WNW 4 7 1021.4 - 0.0 - - - - - - -
28/01:00am 10.2 WNW 4 7 1021.2 - 0.0 - - - - - - -
28/12:30am 10.5 WNW 3 5 1021.0 - 0.0 - - - - - - -
28/12:00am 10.6 WNW 4 7 1020.6 - 0.0 - - - - - - -
 
Date/Time
EST
Temp
°C
Wind Pressure Rain since
9am
mm
Weather Cloud Vis
km
Sea
Height
m
Swell
Dir  Spd
kts
Gust
kts
hPa Trend Height
m
Period
s
Dir
27/11:30pm 10.9 WNW 4 7 1020.4 - 0.0 - - - - - - -
27/11:00pm 10.9 WNW 4 6 1020.3 - 0.0 - - - - - - -
27/10:30pm 11.3 NW 2 3 1020.3 - 0.0 - - - - - - -
27/10:00pm 11.7 WNW 4 5 1020.1 - 0.0 - - - - - - -
27/09:30pm 12.2 WNW 4 8 1020.1 - 0.0 - - - - - - -
27/09:00pm 12.7 WNW 4 9 1019.8 - 0.0 - - - - - - -
27/08:30pm 13.3 W 7 10 1019.5 - 0.0 - - - - - - -
27/08:00pm 13.1 W 4 7 1019.1 - 0.0 - - - - - - -
27/07:30pm 13.3 W 4 6 1018.7 - 0.0 - - - - - - -
27/07:00pm 13.3 WNW 3 7 1018.2 - 0.0 - - - - - - -
27/06:30pm 13.7 WNW 3 5 1017.4 - 0.0 - - - - - - -
27/06:00pm 14.3 WNW 3 4 1016.8 - 0.0 - - - - - - -
27/05:30pm 14.8 W 4 6 1016.3 - 0.0 - - - - - - -
27/05:00pm 15.5 W 4 9 1015.6 - 0.0 - - - - - - -
27/04:30pm 16.5 WNW 6 13 1015.0 - 0.0 - - - - - - -
27/04:00pm 17.1 W 5 11 1014.6 - 0.0 - - - - - - -
27/03:30pm 17.5 W 10 18 1014.3 - 0.0 - - - - - - -
27/03:00pm 18.1 W 6 15 1014.1 - 0.0 - - - - - - -
27/02:30pm 17.5 W 9 18 1013.7 - 0.0 - - - - - - -
27/02:00pm 18.6 WNW 9 18 1013.3 - 0.0 - - - - - - -
27/01:30pm 19.3 WNW 7 16 1013.2 - 0.0 - - - - - - -
27/01:00pm 18.7 W 7 15 1012.9 - 0.0 - - - - - - -
27/12:30pm 18.2 WNW 9 17 1012.6 - 0.0 - - - - - - -
27/12:00pm 18.4 WNW 8 18 1012.6 - 0.0 - - - - - - -
27/11:30am 18.2 WNW 7 14 1012.9 - 0.0 - - - - - - -
27/11:00am 17.8 WNW 6 14 1013.3 - 0.0 - - - - - - -
27/10:30am 17.0 WNW 7 18 1013.7 - 0.0 - - - - - - -
27/10:00am 16.3 NW 8 17 1013.2 - 0.0 - - - - - - -
27/09:30am 15.8 NW 8 16 1013.2 - 0.0 - - - - - - -
27/09:00am 15.0 NW 8 22 1013.1 - 0.0 - - - - - - -
27/08:30am 14.7 NW 9 17 1013.2 - 0.0 - - - - - - -
27/08:00am 13.9 NW 8 15 1013.3 - 0.0 - - - - - - -
27/07:30am 12.7 NNW 6 10 1013.5 - 0.0 - - - - - - -
27/07:00am 11.4 NW 2 5 1013.5 - 0.0 - - - - - - -
27/06:30am 11.5 NW 4 8 1013.5 - 0.0 - - - - - - -
27/06:00am 11.7 NNW 6 10 1013.1 - 0.0 - - - - - - -
27/05:30am 12.3 WNW 4 9 1013.2 - 0.0 - - - - - - -
27/05:00am 12.3 NNW 10 15 1012.7 - 0.0 - - - - - - -
27/04:30am 12.9 NNW 9 12 1012.9 - 0.0 - - - - - - -
27/04:00am 13.3 N 11 13 1013.0 - 0.0 - - - - - - -

Other Formats:

Comma delimited format used in spreadsheet applications
http://www.bom.gov.au/fwo/IDN60701/IDN60701.95770.axf

JavaScript Object Notation format (JSON) in row-major order
http://www.bom.gov.au/fwo/IDN60701/IDN60701.95770.json